createdAt,value
2018-02-10T00:00:25.742Z,135.77
2018-02-10T00:02:54.215Z,141.98
2018-02-10T00:05:23.039Z,142.82
2018-02-10T00:07:51.623Z,139.73
2018-02-10T00:10:20.513Z,143.93
2018-02-10T00:12:49.269Z,145.48
2018-02-10T00:15:17.833Z,142.25
2018-02-10T00:17:46.264Z,132.43
2018-02-10T00:20:15.050Z,145.35
2018-02-10T00:22:43.534Z,146.07
2018-02-10T00:25:11.978Z,130.90
2018-02-10T00:27:40.639Z,148.18
2018-02-10T00:30:09.101Z,136.50
2018-02-10T00:32:37.586Z,131.27
2018-02-10T00:35:06.662Z,148.68
2018-02-10T00:37:35.091Z,131.45
2018-02-10T00:40:03.592Z,135.27
2018-02-10T00:42:32.202Z,167.75
2018-02-10T00:45:00.654Z,150.55
2018-02-10T00:47:29.070Z,149.57
2018-02-10T00:49:57.646Z,147.77
2018-02-10T00:52:26.180Z,132.57
2018-02-10T00:54:54.764Z,145.98
2018-02-10T00:57:23.940Z,139.15
2018-02-10T00:59:52.460Z,142.00
2018-02-10T01:02:20.946Z,157.65
2018-02-10T01:04:49.632Z,139.95
2018-02-10T01:07:19.243Z,131.75
2018-02-10T01:09:47.820Z,130.63
2018-02-10T01:12:17.789Z,136.45
2018-02-10T01:14:46.213Z,145.68
2018-02-10T01:17:14.697Z,139.10
2018-02-10T01:19:43.710Z,140.82
2018-02-10T01:22:12.134Z,147.52
2018-02-10T01:24:40.578Z,132.87
2018-02-10T01:27:09.147Z,140.23
2018-02-10T01:29:37.573Z,142.40
2018-02-10T01:32:05.990Z,136.62
2018-02-10T01:34:34.629Z,148.05
2018-02-10T01:37:03.041Z,147.82
2018-02-10T01:39:31.578Z,150.80
2018-02-10T01:42:00.697Z,140.95
2018-02-10T01:44:29.147Z,145.62
2018-02-10T01:46:57.627Z,133.73
2018-02-10T01:49:26.411Z,144.23
2018-02-10T01:51:54.989Z,144.45
2018-02-10T01:54:23.508Z,152.80
2018-02-10T01:56:52.793Z,156.02
2018-02-10T01:59:21.462Z,143.55
2018-02-10T02:01:49.918Z,168.62
2018-02-10T02:04:18.693Z,173.62
2018-02-10T02:06:47.109Z,173.10
2018-02-10T02:09:15.549Z,156.37
2018-02-10T02:11:44.200Z,167.48
2018-02-10T02:14:12.641Z,151.35
2018-02-10T02:16:41.066Z,144.98
2018-02-10T02:19:09.818Z,130.60
2018-02-10T02:21:38.288Z,173.48
2018-02-10T02:24:06.727Z,147.05
2018-02-10T02:26:36.125Z,144.65
2018-02-10T02:29:04.586Z,147.60
2018-02-10T02:31:33.044Z,155.00
2018-02-10T02:34:02.336Z,145.77
2018-02-10T02:36:30.772Z,155.48
2018-02-10T02:38:59.781Z,140.88
2018-02-10T02:41:28.312Z,151.75
2018-02-10T02:43:56.791Z,155.80
2018-02-10T02:46:25.443Z,137.80
2018-02-10T02:48:55.392Z,148.93
2018-02-10T02:51:23.937Z,151.37
2018-02-10T02:53:52.415Z,149.10
2018-02-10T02:56:22.232Z,149.10
2018-02-10T02:58:51.156Z,144.05
2018-02-10T03:01:19.726Z,135.43
2018-02-10T03:03:48.286Z,153.30
2018-02-10T03:06:16.900Z,147.65
2018-02-10T03:08:45.358Z,137.40
2018-02-10T03:11:13.865Z,132.30
2018-02-10T03:13:42.304Z,157.00
2018-02-10T03:16:10.726Z,146.15
2018-02-10T03:18:40.062Z,155.23
2018-02-10T03:21:08.503Z,155.05
2018-02-10T03:23:36.950Z,149.52
2018-02-10T03:26:06.015Z,142.15
2018-02-10T03:28:34.449Z,143.30
2018-02-10T03:31:02.876Z,148.85
2018-02-10T03:33:31.489Z,144.62
2018-02-10T03:35:59.922Z,153.27
2018-02-10T03:38:28.404Z,144.87
2018-02-10T03:40:57.705Z,155.43
2018-02-10T03:43:26.293Z,157.85
2018-02-10T03:45:54.770Z,149.55
2018-02-10T03:48:23.973Z,166.50
2018-02-10T03:50:52.543Z,151.87
2018-02-10T03:53:21.239Z,139.55
2018-02-10T03:55:49.933Z,131.20
2018-02-10T03:58:18.413Z,149.60
2018-02-10T04:00:46.870Z,148.75
2018-02-10T04:03:16.503Z,136.82
2018-02-10T04:05:45.976Z,143.80
2018-02-10T04:08:14.416Z,144.43
2018-02-10T04:10:43.219Z,132.37
2018-02-10T04:13:11.629Z,149.25
2018-02-10T04:15:40.102Z,138.02
2018-02-10T04:18:08.592Z,144.52
2018-02-10T04:20:37.029Z,140.05
2018-02-10T04:23:05.452Z,154.80
2018-02-10T04:25:33.934Z,150.62
2018-02-10T04:28:02.369Z,145.93
2018-02-10T04:30:30.870Z,150.23
2018-02-10T04:32:59.872Z,149.55
2018-02-10T04:35:28.364Z,135.60
2018-02-10T04:37:57.059Z,147.37
2018-02-10T04:40:26.148Z,132.27
2018-02-10T04:42:54.731Z,141.93
2018-02-10T04:45:23.231Z,140.75
2018-02-10T04:47:52.203Z,153.50
2018-02-10T04:50:20.708Z,145.57
2018-02-10T04:52:49.185Z,140.77
2018-02-10T04:55:17.714Z,156.98
2018-02-10T04:57:46.179Z,145.05
2018-02-10T05:00:14.610Z,145.20
2018-02-10T05:02:43.083Z,142.27
2018-02-10T05:05:11.561Z,141.37
2018-02-10T05:07:40.046Z,129.73
2018-02-10T05:10:08.576Z,136.35
2018-02-10T05:12:37.009Z,140.80
2018-02-10T05:15:05.491Z,133.57
2018-02-10T05:17:34.612Z,130.02
2018-02-10T05:20:03.088Z,134.37
2018-02-10T05:22:31.513Z,144.90
2018-02-10T05:25:00.032Z,134.30
2018-02-10T05:27:28.641Z,153.02
2018-02-10T05:29:57.224Z,131.12
2018-02-10T05:32:25.837Z,142.93
2018-02-10T05:34:54.306Z,132.63
2018-02-10T05:37:22.857Z,131.30
2018-02-10T05:39:51.705Z,139.23
2018-02-10T05:42:20.423Z,151.87
2018-02-10T05:44:48.849Z,148.90
2018-02-10T05:47:17.457Z,133.37
2018-02-10T05:49:45.889Z,130.40
2018-02-10T05:52:14.306Z,139.32
2018-02-10T05:54:43.336Z,176.12
2018-02-10T05:57:11.770Z,146.02
2018-02-10T05:59:41.132Z,144.80
2018-02-10T06:02:09.768Z,130.20
2018-02-10T06:04:38.251Z,155.00
2018-02-10T06:07:06.679Z,138.50
2018-02-10T06:09:35.263Z,127.38
2018-02-10T06:12:03.821Z,149.18
2018-02-10T06:14:32.279Z,132.18
2018-02-10T06:17:02.162Z,142.95
2018-02-10T06:19:30.621Z,140.80
2018-02-10T06:21:59.231Z,142.60
2018-02-10T06:24:28.505Z,147.23
2018-02-10T06:26:57.192Z,146.68
2018-02-10T06:29:25.720Z,146.20
2018-02-10T06:31:54.613Z,135.80
2018-02-10T06:34:23.168Z,131.70
2018-02-10T06:36:51.714Z,139.45
2018-02-10T06:39:20.454Z,152.45
2018-02-10T06:41:48.945Z,158.98
2018-02-10T06:44:17.394Z,136.80
2018-02-10T06:46:46.777Z,130.80
2018-02-10T06:49:15.661Z,126.40
2018-02-10T06:51:44.096Z,130.37
2018-02-10T06:54:12.915Z,131.70
2018-02-10T06:56:41.484Z,126.20
2018-02-10T06:59:09.973Z,148.62
2018-02-10T07:01:38.923Z,165.77
2018-02-10T07:04:07.384Z,146.48
2018-02-10T07:06:35.854Z,131.55
2018-02-10T07:09:04.512Z,142.35
2018-02-10T07:11:33.022Z,133.85
2018-02-10T07:14:01.593Z,147.25
2018-02-10T07:16:30.274Z,160.30
2018-02-10T07:18:58.812Z,149.10
2018-02-10T07:21:27.513Z,139.02
2018-02-10T07:23:56.184Z,156.40
2018-02-10T07:26:24.873Z,130.25
2018-02-10T07:28:53.572Z,126.47
2018-02-10T07:31:22.565Z,140.07
2018-02-10T07:33:51.216Z,154.32
2018-02-10T07:36:19.903Z,142.00
2018-02-10T07:38:48.458Z,137.43
2018-02-10T07:41:16.915Z,133.65
2018-02-10T07:43:45.359Z,133.23
2018-02-10T07:46:13.842Z,147.82
2018-02-10T07:48:42.303Z,135.32
2018-02-10T07:51:10.889Z,145.50
2018-02-10T07:53:39.442Z,140.05
2018-02-10T07:56:07.889Z,144.85
2018-02-10T07:58:36.372Z,142.90
2018-02-10T08:01:05.909Z,149.62
2018-02-10T08:03:34.377Z,139.40
2018-02-10T08:06:02.912Z,139.80
2018-02-10T08:08:31.485Z,140.48
2018-02-10T08:10:59.968Z,128.93
2018-02-10T08:13:29.269Z,140.73
2018-02-10T08:15:59.113Z,136.23
2018-02-10T08:18:27.695Z,139.62
2018-02-10T08:20:56.326Z,140.65
2018-02-10T08:23:24.867Z,125.15
2018-02-10T08:25:53.445Z,143.07
2018-02-10T08:28:22.204Z,151.55
2018-02-10T08:30:51.709Z,128.82
2018-02-10T08:33:20.942Z,139.88
2018-02-10T08:35:49.500Z,138.93
2018-02-10T08:38:18.350Z,126.60
2018-02-10T08:40:46.832Z,137.48
2018-02-10T08:43:15.274Z,123.20
2018-02-10T08:45:44.111Z,125.62
2018-02-10T08:48:12.592Z,123.15
2018-02-10T08:50:41.074Z,118.97
2018-02-10T08:53:10.326Z,128.12
2018-02-10T08:55:38.857Z,120.93
2018-02-10T08:58:07.441Z,119.82
2018-02-10T09:00:36.073Z,125.35
2018-02-10T09:03:04.576Z,134.10
2018-02-10T09:05:33.041Z,127.95
2018-02-10T09:08:01.978Z,121.07
2018-02-10T09:10:30.709Z,111.20
2018-02-10T09:12:59.248Z,117.55
2018-02-10T09:15:28.326Z,119.93
2018-02-10T09:17:57.620Z,118.95
2018-02-10T09:20:26.225Z,128.93
2018-02-10T09:22:56.118Z,123.70
2018-02-10T09:25:24.860Z,126.30
2018-02-10T09:27:54.058Z,118.25
2018-02-10T09:30:22.966Z,128.77
2018-02-10T09:32:51.705Z,120.45
2018-02-10T09:35:20.222Z,123.78
2018-02-10T09:37:49.560Z,134.57
2018-02-10T09:40:18.819Z,132.87
2018-02-10T09:42:47.320Z,140.93
2018-02-10T09:45:16.052Z,123.53
2018-02-10T09:47:44.509Z,122.70
2018-02-10T09:50:12.960Z,125.85
2018-02-10T09:52:42.017Z,121.97
2018-02-10T09:55:10.482Z,118.30
2018-02-10T09:57:38.918Z,114.28
2018-02-10T10:00:08.245Z,126.03
2018-02-10T10:02:36.669Z,157.80
2018-02-10T10:05:05.250Z,130.57
2018-02-10T10:07:34.511Z,133.27
2018-02-10T10:10:03.023Z,136.70
2018-02-10T10:12:31.503Z,132.05
2018-02-10T10:15:00.060Z,125.22
2018-02-10T10:17:28.592Z,119.72
2018-02-10T10:19:57.700Z,114.20
2018-02-10T10:22:26.961Z,130.98
2018-02-10T10:24:55.488Z,141.75
2018-02-10T10:27:24.137Z,145.98
2018-02-10T10:29:53.349Z,140.05
2018-02-10T10:32:22.104Z,137.32
2018-02-10T10:34:51.517Z,127.68
2018-02-10T10:37:20.626Z,126.28
2018-02-10T10:39:49.186Z,131.40
2018-02-10T10:42:17.617Z,132.25
2018-02-10T10:44:46.965Z,126.62
2018-02-10T10:47:15.424Z,118.72
2018-02-10T10:49:43.837Z,123.72
2018-02-10T10:52:12.575Z,124.62
2018-02-10T10:54:41.054Z,116.12
2018-02-10T10:57:09.524Z,110.78
2018-02-10T10:59:38.215Z,115.05
2018-02-10T11:02:06.642Z,120.95
2018-02-10T11:04:35.123Z,113.32
2018-02-10T11:07:04.527Z,129.40
2018-02-10T11:09:33.007Z,123.60
2018-02-10T11:12:01.916Z,112.88
2018-02-10T11:14:30.499Z,116.60
2018-02-10T11:16:58.976Z,113.62
2018-02-10T11:19:27.759Z,116.93
2018-02-10T11:21:56.553Z,119.30
2018-02-10T11:24:25.075Z,113.60
2018-02-10T11:26:53.570Z,117.53
2018-02-10T11:29:23.913Z,122.37
2018-02-10T11:31:52.530Z,117.80
2018-02-10T11:34:21.332Z,126.78
2018-02-10T11:36:50.618Z,123.22
2018-02-10T11:39:19.129Z,117.43
2018-02-10T11:41:47.545Z,114.88
2018-02-10T11:44:16.484Z,116.20
2018-02-10T11:46:44.942Z,121.40
2018-02-10T11:49:13.397Z,119.00
2018-02-10T11:51:42.631Z,117.37
2018-02-10T11:54:11.045Z,123.28
2018-02-10T11:56:39.475Z,121.62
2018-02-10T11:59:07.946Z,111.47
2018-02-10T12:01:36.386Z,101.10
2018-02-10T12:04:04.825Z,112.47
2018-02-10T12:06:33.297Z,113.53
2018-02-10T12:09:01.742Z,119.05
2018-02-10T12:11:30.583Z,104.50
2018-02-10T12:13:59.585Z,112.57
2018-02-10T12:16:28.268Z,123.13
2018-02-10T12:18:56.846Z,104.65
2018-02-10T12:21:26.168Z,117.22
2018-02-10T12:23:54.872Z,114.32
2018-02-10T12:26:23.389Z,111.97
2018-02-10T12:28:51.930Z,112.22
2018-02-10T12:31:21.493Z,108.12
2018-02-10T12:33:50.352Z,115.55
2018-02-10T12:36:19.013Z,109.47
2018-02-10T12:38:47.489Z,111.72
2018-02-10T12:41:15.929Z,108.72
2018-02-10T12:43:44.690Z,106.50
2018-02-10T12:46:13.141Z,111.30
2018-02-10T12:51:45.393Z,109.28
2018-02-10T12:54:14.918Z,111.55
2018-02-10T12:56:43.385Z,108.03
2018-02-10T12:59:12.638Z,122.72
2018-02-10T13:01:41.196Z,117.78
2018-02-10T13:04:09.696Z,93.70
2018-02-10T13:06:38.149Z,102.28
2018-02-10T13:09:06.614Z,108.12
2018-02-10T13:11:35.190Z,105.53
2018-02-10T13:14:03.697Z,113.93
2018-02-10T13:16:32.721Z,112.55
2018-02-10T13:19:01.244Z,103.03
2018-02-10T13:21:29.972Z,98.65
2018-02-10T13:23:58.832Z,106.60
2018-02-10T13:26:28.287Z,103.22
2018-02-10T13:28:56.818Z,103.35
2018-02-10T13:31:25.418Z,99.97
2018-02-10T13:33:54.906Z,104.75
2018-02-10T13:36:23.452Z,94.55
2018-02-10T13:38:52.681Z,104.93
2018-02-10T13:41:21.572Z,115.37
2018-02-10T13:43:50.125Z,96.45
2018-02-10T13:46:18.820Z,92.75
2018-02-10T13:48:47.250Z,104.80
2018-02-10T13:51:15.692Z,95.53
2018-02-10T13:53:44.191Z,95.47
2018-02-10T13:56:12.748Z,146.87
2018-02-10T13:58:41.369Z,106.72
2018-02-10T14:01:10.241Z,108.45
2018-02-10T14:03:38.701Z,95.82
2018-02-10T14:06:07.129Z,91.80
2018-02-10T14:08:35.661Z,107.50
2018-02-10T14:11:04.114Z,95.93
2018-02-10T14:13:32.533Z,95.35
2018-02-10T14:16:01.050Z,92.60
2018-02-10T14:18:29.613Z,86.60
2018-02-10T14:20:58.145Z,67.65
2018-02-10T14:23:27.968Z,77.95
2018-02-10T14:25:56.749Z,85.70
2018-02-10T14:28:25.235Z,82.88
2018-02-10T14:30:54.151Z,68.30
2018-02-10T14:33:22.843Z,82.43
2018-02-10T14:35:51.439Z,71.37
2018-02-10T14:38:21.393Z,76.90
2018-02-10T14:40:50.462Z,66.60
2018-02-10T14:43:18.897Z,72.47
2018-02-10T14:45:47.354Z,80.78
2018-02-10T14:48:15.815Z,78.20
2018-02-10T14:50:44.230Z,79.95
2018-02-10T14:53:12.908Z,82.15
2018-02-10T14:55:41.332Z,83.87
2018-02-10T14:58:09.881Z,77.40
2018-02-10T15:00:39.045Z,74.95
2018-02-10T15:03:07.455Z,78.28
2018-02-10T15:05:35.863Z,78.93
2018-02-10T15:08:04.472Z,80.30
2018-02-10T15:10:32.997Z,97.82
2018-02-10T15:13:01.458Z,82.20
2018-02-10T15:15:29.948Z,78.62
2018-02-10T15:17:58.947Z,82.93
2018-02-10T15:20:27.553Z,75.15
2018-02-10T15:22:56.526Z,80.15
2018-02-10T15:25:25.098Z,80.03
2018-02-10T15:27:53.625Z,94.25
2018-02-10T15:30:34.241Z,82.22
2018-02-10T15:33:14.382Z,93.82
2018-02-10T15:35:43.209Z,91.00
2018-02-10T15:38:11.621Z,99.10
2018-02-10T15:40:40.153Z,89.95
2018-02-10T15:43:08.652Z,86.00
2018-02-10T15:45:37.088Z,95.00
2018-02-10T15:48:05.542Z,95.38
2018-02-10T15:50:35.480Z,105.18
2018-02-10T15:53:03.964Z,97.88
2018-02-10T15:55:32.387Z,94.32
2018-02-10T15:58:01.540Z,84.40
2018-02-10T16:00:30.173Z,80.30
2018-02-10T16:02:58.921Z,79.55
2018-02-10T16:05:27.957Z,91.97
2018-02-10T16:07:56.729Z,63.13
2018-02-10T16:10:25.352Z,83.10
2018-02-10T16:12:54.561Z,76.68
2018-02-10T16:15:23.476Z,68.15
2018-02-10T16:17:52.182Z,67.53
2018-02-10T16:20:21.323Z,76.15
2018-02-10T16:22:49.787Z,67.03
2018-02-10T16:25:18.323Z,68.40
2018-02-10T16:27:47.240Z,63.58
2018-02-10T16:30:15.687Z,74.43
2018-02-10T16:32:44.149Z,68.10
2018-02-10T16:35:13.248Z,63.83
2018-02-10T16:37:41.667Z,57.88
2018-02-10T16:40:10.103Z,55.67
2018-02-10T16:42:38.991Z,52.60
2018-02-10T16:45:07.415Z,51.30
2018-02-10T16:47:35.849Z,55.70
2018-02-10T16:50:04.918Z,54.63
2018-02-10T16:52:34.149Z,54.13
2018-02-10T16:55:02.644Z,49.22
2018-02-10T16:57:31.537Z,46.35
2018-02-10T16:59:59.993Z,48.85
2018-02-10T17:02:28.650Z,45.03
2018-02-10T17:04:57.238Z,44.47
2018-02-10T17:07:26.051Z,54.40
2018-02-10T17:09:54.951Z,47.88
2018-02-10T17:12:23.651Z,52.62
2018-02-10T17:14:52.107Z,43.92
2018-02-10T17:17:20.653Z,50.47
2018-02-10T17:19:49.504Z,47.58
2018-02-10T17:22:18.015Z,49.30
2018-02-10T17:24:46.465Z,55.25
2018-02-10T17:27:15.341Z,46.88
2018-02-10T17:29:43.770Z,48.08
2018-02-10T17:32:12.293Z,56.40
2018-02-10T17:34:41.312Z,40.53
2018-02-10T17:37:09.762Z,44.15
2018-02-10T17:39:38.276Z,47.30
2018-02-10T17:42:06.753Z,50.67
2018-02-10T17:44:35.209Z,48.85
2018-02-10T17:47:03.642Z,47.30
2018-02-10T17:49:32.357Z,52.22
2018-02-10T17:52:00.839Z,50.65
2018-02-10T17:54:29.384Z,45.12
2018-02-10T17:56:58.000Z,48.90
2018-02-10T17:59:26.449Z,49.53
2018-02-10T18:01:55.214Z,42.00
2018-02-10T18:04:24.720Z,50.67
2018-02-10T18:06:53.336Z,49.80
2018-02-10T18:09:21.882Z,42.55
2018-02-10T18:11:51.087Z,45.58
2018-02-10T18:14:19.838Z,49.13
2018-02-10T18:16:48.254Z,53.08
2018-02-10T18:19:17.001Z,48.33
2018-02-10T18:21:45.647Z,47.83
2018-02-10T18:24:14.076Z,48.50
2018-02-10T18:26:42.544Z,55.83
2018-02-10T18:29:10.992Z,50.78
2018-02-10T18:31:39.999Z,57.00
2018-02-10T18:34:08.601Z,56.72
2018-02-10T18:36:37.008Z,51.15
2018-02-10T18:39:05.540Z,60.67
2018-02-10T18:41:34.093Z,69.53
2018-02-10T18:44:02.553Z,72.45
2018-02-10T18:46:31.162Z,70.32
2018-02-10T18:48:59.697Z,72.78
2018-02-10T18:51:28.585Z,75.10
2018-02-10T18:53:57.078Z,83.60
2018-02-10T18:56:26.243Z,86.87
2018-02-10T18:58:55.154Z,73.72
2018-02-10T19:01:23.718Z,79.70
2018-02-10T19:03:53.659Z,73.00
2018-02-10T19:06:22.209Z,89.32
2018-02-10T19:08:50.856Z,72.80
2018-02-10T19:11:20.342Z,70.72
2018-02-10T19:13:48.849Z,104.38
2018-02-10T19:16:17.293Z,91.28
2018-02-10T19:18:46.247Z,73.00
2018-02-10T19:21:14.752Z,90.62
2018-02-10T19:23:43.235Z,83.95
2018-02-10T19:26:12.709Z,88.20
2018-02-10T19:28:41.153Z,82.65
2018-02-10T19:31:09.672Z,78.55
2018-02-10T19:33:38.207Z,79.40
2018-02-10T19:36:06.776Z,80.97
2018-02-10T19:38:36.317Z,85.82
2018-02-10T19:41:04.887Z,78.45
2018-02-10T19:43:33.439Z,91.05
2018-02-10T19:46:01.997Z,82.28
2018-02-10T19:48:31.099Z,78.07
2018-02-10T19:51:00.308Z,83.75
2018-02-10T19:53:29.412Z,78.78
2018-02-10T19:55:58.368Z,74.00
2018-02-10T19:58:26.965Z,72.35
2018-02-10T20:00:55.642Z,82.72
2018-02-10T20:03:24.770Z,76.65
2018-02-10T20:05:53.418Z,73.15
2018-02-10T20:08:21.988Z,82.55
2018-02-10T20:10:52.188Z,72.80
2018-02-10T20:13:20.640Z,73.72
2018-02-10T20:15:50.072Z,86.47
2018-02-10T20:18:18.696Z,75.00
2018-02-10T20:20:47.300Z,75.47
2018-02-10T20:23:15.716Z,82.28
2018-02-10T20:25:44.901Z,64.32
2018-02-10T20:28:13.396Z,78.50
2018-02-10T20:30:41.845Z,72.15
2018-02-10T20:33:11.532Z,81.43
2018-02-10T20:35:39.955Z,83.40
2018-02-10T20:38:08.399Z,77.03
2018-02-10T20:40:37.865Z,89.53
2018-02-10T20:43:06.351Z,68.47
2018-02-10T20:45:34.797Z,87.07
2018-02-10T20:48:03.304Z,90.68
2018-02-10T20:50:31.822Z,94.68
2018-02-10T20:53:00.552Z,80.60
2018-02-10T20:55:29.947Z,86.70
2018-02-10T20:57:58.699Z,86.90
2018-02-10T21:00:27.229Z,84.72
2018-02-10T21:02:56.376Z,68.40
2018-02-10T21:05:24.915Z,87.05
2018-02-10T21:07:53.407Z,82.47
2018-02-10T21:10:22.532Z,86.55
2018-02-10T21:12:51.642Z,80.85
2018-02-10T21:15:20.372Z,80.40
2018-02-10T21:17:49.081Z,90.93
2018-02-10T21:20:17.513Z,92.53
2018-02-10T21:22:45.962Z,79.40
2018-02-10T21:25:15.736Z,100.62
2018-02-10T21:27:44.318Z,78.90
2018-02-10T21:30:12.781Z,90.12
2018-02-10T21:32:42.138Z,75.93
2018-02-10T21:35:10.598Z,105.97
2018-02-10T21:37:39.094Z,89.10
2018-02-10T21:40:08.008Z,95.45
2018-02-10T21:42:36.628Z,86.15
2018-02-10T21:45:05.115Z,84.82
2018-02-10T21:47:33.874Z,78.43
2018-02-10T21:50:02.292Z,88.28
2018-02-10T21:52:30.754Z,77.85
2018-02-10T21:54:59.957Z,81.20
2018-02-10T21:57:28.959Z,79.87
2018-02-10T21:59:58.063Z,88.05
2018-02-10T22:02:27.056Z,98.97
2018-02-10T22:04:55.663Z,82.30
2018-02-10T22:07:24.468Z,83.78
2018-02-10T22:09:53.302Z,71.60
2018-02-10T22:12:22.200Z,86.70
2018-02-10T22:14:50.701Z,79.70
2018-02-10T22:17:19.252Z,85.28
2018-02-10T22:19:47.732Z,77.22
2018-02-10T22:22:16.181Z,82.70
2018-02-10T22:24:44.886Z,75.72
2018-02-10T22:27:13.306Z,90.05
2018-02-10T22:29:41.707Z,89.45
2018-02-10T22:32:10.188Z,90.10
2018-02-10T22:34:38.617Z,73.78
2018-02-10T22:37:07.057Z,73.00
2018-02-10T22:39:35.532Z,92.70
2018-02-10T22:42:03.977Z,87.53
2018-02-10T22:44:32.419Z,89.37
2018-02-10T22:47:00.951Z,90.82
2018-02-10T22:49:29.453Z,77.62
2018-02-10T22:51:57.913Z,74.78
2018-02-10T22:54:26.546Z,100.15
2018-02-10T22:56:55.077Z,85.47
2018-02-10T22:59:23.761Z,78.68
2018-02-10T23:01:52.434Z,71.60
2018-02-10T23:04:20.956Z,68.55
2018-02-10T23:06:49.439Z,81.95
2018-02-10T23:09:18.814Z,91.07
2018-02-10T23:11:47.292Z,86.00
2018-02-10T23:14:15.771Z,89.07
2018-02-10T23:16:45.422Z,82.75
2018-02-10T23:19:13.949Z,66.82
2018-02-10T23:21:42.576Z,86.18
2018-02-10T23:24:11.949Z,91.72
2018-02-10T23:26:40.368Z,74.68
2018-02-10T23:29:08.851Z,77.05
2018-02-10T23:31:38.265Z,90.65
2018-02-10T23:34:06.714Z,85.45
2018-02-10T23:36:35.220Z,78.10
2018-02-10T23:39:03.881Z,80.32
2018-02-10T23:41:32.364Z,81.30
2018-02-10T23:44:00.833Z,73.20
2018-02-10T23:46:29.656Z,76.72
2018-02-10T23:48:58.383Z,82.20
2018-02-10T23:51:26.862Z,87.35
2018-02-10T23:53:55.652Z,78.37
2018-02-10T23:56:24.427Z,69.40
2018-02-10T23:58:52.970Z,88.65
